Bakersfield (BFL/KBFL)

Map

Destinations

Information

Location
Bakersfield, CA
Local Time
17:05 / 5:05 pm
GMT Time
00:05 / 12:05 am
Gates
2
No FAA reported delays
METAR KBFL 252354Z 33012G18KT 10SM CLR 23/06 A2998 RMK AO2 SLP147 T02280056 10228 20167 58014
TAF KBFL 252320Z 2600/2624 32010KT P6SM BKN200 FM260300 34007KT P6SM BKN200 FM260900 VRB04KT P6SM BKN200 FM262000 30009KT P6SM BKN200